createdAt,value
2022-10-05T00:00:54.256Z,979.32
2022-10-05T00:01:54.306Z,979.98
2022-10-05T00:02:54.232Z,980.34
2022-10-05T00:03:54.251Z,981.04
2022-10-05T00:04:54.246Z,981.02
2022-10-05T00:05:54.183Z,981.48
2022-10-05T00:06:54.198Z,982.29
2022-10-05T00:07:54.164Z,983.33
2022-10-05T00:08:54.154Z,983.80
2022-10-05T00:09:54.145Z,984.22
2022-10-05T00:10:54.147Z,983.64
2022-10-05T00:11:54.144Z,984.63
2022-10-05T00:12:54.116Z,985.62
2022-10-05T00:13:54.105Z,985.80
2022-10-05T00:14:54.086Z,986.26
2022-10-05T00:15:54.122Z,985.98
2022-10-05T00:16:54.112Z,985.92
2022-10-05T00:17:54.058Z,985.97
2022-10-05T00:18:54.037Z,986.19
2022-10-05T00:19:54.078Z,986.82
2022-10-05T00:20:54.022Z,987.35
2022-10-05T00:21:54.022Z,988.04
2022-10-05T00:22:53.995Z,988.24
2022-10-05T00:23:53.988Z,988.94
2022-10-05T00:24:53.977Z,990.30
2022-10-05T00:25:53.967Z,990.44
2022-10-05T00:26:57.816Z,990.65
2022-10-05T00:27:53.966Z,991.02
2022-10-05T00:28:53.916Z,991.67
2022-10-05T00:29:53.916Z,992.45
2022-10-05T00:30:53.898Z,992.72
2022-10-05T00:31:53.931Z,993.60
2022-10-05T00:32:58.665Z,994.82
2022-10-05T00:33:54.873Z,995.81
2022-10-05T00:34:53.847Z,996.06
2022-10-05T00:35:53.837Z,996.13
2022-10-05T00:36:53.859Z,996.11
2022-10-05T00:37:53.828Z,995.96
2022-10-05T00:38:53.798Z,996.28
2022-10-05T00:39:53.797Z,996.59
2022-10-05T00:40:53.791Z,997.75
2022-10-05T00:41:53.787Z,998.41
2022-10-05T00:42:53.749Z,999.09
2022-10-05T00:43:53.761Z,999.12
2022-10-05T00:44:53.727Z,999.69
2022-10-05T00:45:53.801Z,1000.35
2022-10-05T00:46:53.729Z,1001.12
2022-10-05T00:47:53.708Z,1001.61
2022-10-05T00:48:53.679Z,1002.03
2022-10-05T00:49:53.680Z,1002.50
2022-10-05T00:50:53.670Z,1002.92
2022-10-05T00:51:53.668Z,1003.26
2022-10-05T00:52:53.639Z,1002.98
2022-10-05T00:53:53.640Z,1003.07
2022-10-05T00:54:53.609Z,1002.70
2022-10-05T00:55:53.600Z,1002.56
2022-10-05T00:56:53.612Z,1002.77
2022-10-05T00:57:53.590Z,1002.44
2022-10-05T00:58:53.570Z,1002.39
2022-10-05T00:59:53.559Z,1002.24
2022-10-05T01:00:53.604Z,1002.13
2022-10-05T01:01:53.583Z,1001.86
2022-10-05T01:02:53.588Z,1001.99
2022-10-05T01:03:53.510Z,1002.21
2022-10-05T01:04:53.493Z,1002.19
2022-10-05T01:05:53.471Z,1002.56
2022-10-05T01:06:53.488Z,1002.15
2022-10-05T01:07:53.469Z,1001.57
2022-10-05T01:08:53.441Z,1001.22
2022-10-05T01:09:53.445Z,1001.00
2022-10-05T01:10:53.421Z,1001.00
2022-10-05T01:11:53.420Z,1000.86
2022-10-05T01:12:53.400Z,1000.69
2022-10-05T01:13:53.394Z,1000.63
2022-10-05T01:14:53.415Z,1000.67
2022-10-05T01:15:53.353Z,1000.69
2022-10-05T01:16:53.414Z,1001.24
2022-10-05T01:17:53.356Z,1001.64
2022-10-05T01:18:53.332Z,1002.48
2022-10-05T01:19:53.312Z,1003.32
2022-10-05T01:20:53.303Z,1003.14
2022-10-05T01:21:53.304Z,1003.46
2022-10-05T01:22:53.280Z,1003.27
2022-10-05T01:23:53.271Z,1003.76
2022-10-05T01:24:53.263Z,1004.68
2022-10-05T01:25:53.243Z,1004.98
2022-10-05T01:26:53.272Z,1005.42
2022-10-05T01:27:53.253Z,1005.58
2022-10-05T01:28:53.211Z,1006.10
2022-10-05T01:29:53.192Z,1006.32
2022-10-05T01:30:53.193Z,1006.14
2022-10-05T01:31:53.253Z,1006.42
2022-10-05T01:32:53.183Z,1006.60
2022-10-05T01:33:53.163Z,1006.56
2022-10-05T01:34:53.275Z,1006.57
2022-10-05T01:35:53.124Z,1006.33
2022-10-05T01:36:53.142Z,1006.79
2022-10-05T01:37:53.114Z,1006.83
2022-10-05T01:38:53.084Z,1007.68
2022-10-05T01:39:53.078Z,1007.99
2022-10-05T01:40:53.076Z,1008.24
2022-10-05T01:41:53.075Z,1008.39
2022-10-05T01:42:53.036Z,1008.40
2022-10-05T01:43:53.044Z,1008.98
2022-10-05T01:44:53.074Z,1008.75
2022-10-05T01:45:53.088Z,1009.18
2022-10-05T01:46:53.014Z,1009.81
2022-10-05T01:47:52.995Z,1009.99
2022-10-05T01:48:52.975Z,1010.09
2022-10-05T01:49:52.964Z,1009.95
2022-10-05T01:50:52.955Z,1009.74
2022-10-05T01:51:52.965Z,1009.14
2022-10-05T01:52:52.926Z,1009.22
2022-10-05T01:53:52.924Z,1010.09
2022-10-05T01:54:52.915Z,1010.82
2022-10-05T01:55:52.896Z,1011.41
2022-10-05T01:56:52.904Z,1011.72
2022-10-05T01:57:52.876Z,1011.49
2022-10-05T01:58:52.857Z,1011.03
2022-10-05T01:59:52.844Z,1010.72
2022-10-05T02:00:52.910Z,1010.48
2022-10-05T02:01:52.954Z,1009.26
2022-10-05T02:02:52.805Z,1008.56
2022-10-05T02:03:52.807Z,1007.77
2022-10-05T02:05:08.244Z,1007.20
2022-10-05T02:05:53.776Z,1006.67
2022-10-05T02:06:52.789Z,1006.03
2022-10-05T02:07:52.759Z,1004.68
2022-10-05T02:08:52.746Z,1004.25
2022-10-05T02:09:52.727Z,1003.65
2022-10-05T02:10:52.736Z,1003.59
2022-10-05T02:11:52.736Z,1003.14
2022-10-05T02:12:52.696Z,1003.23
2022-10-05T02:13:52.689Z,1003.35
2022-10-05T02:14:52.693Z,1003.67
2022-10-05T02:15:52.763Z,1003.88
2022-10-05T02:16:52.659Z,1003.69
2022-10-05T02:17:52.642Z,1003.39
2022-10-05T02:18:52.631Z,1003.20
2022-10-05T02:19:52.609Z,1002.76
2022-10-05T02:20:52.612Z,1002.23
2022-10-05T02:21:52.862Z,1001.56
2022-10-05T02:22:52.578Z,1000.78
2022-10-05T02:23:52.571Z,1000.16
2022-10-05T02:24:52.567Z,1000.12
2022-10-05T02:25:52.549Z,1000.04
2022-10-05T02:26:52.558Z,999.72
2022-10-05T02:27:52.567Z,999.51
2022-10-05T02:28:52.520Z,999.09
2022-10-05T02:29:52.489Z,998.38
2022-10-05T02:30:52.506Z,997.90
2022-10-05T02:31:52.576Z,997.86
2022-10-05T02:32:52.469Z,998.10
2022-10-05T02:33:52.459Z,997.63
2022-10-05T02:34:52.449Z,997.35
2022-10-05T02:35:52.428Z,997.43
2022-10-05T02:36:52.413Z,997.55
2022-10-05T02:37:52.410Z,997.96
2022-10-05T02:38:52.390Z,998.02
2022-10-05T02:39:52.383Z,998.25
2022-10-05T02:40:52.373Z,998.29
2022-10-05T02:41:52.373Z,998.00
2022-10-05T02:42:52.342Z,998.19
2022-10-05T02:43:52.332Z,998.07
2022-10-05T02:44:52.329Z,997.39
2022-10-05T02:45:52.380Z,997.22
2022-10-05T02:46:57.016Z,996.90
2022-10-05T02:47:53.290Z,996.90
2022-10-05T02:48:52.281Z,997.00
2022-10-05T02:49:52.271Z,997.00
2022-10-05T02:50:52.263Z,996.90
2022-10-05T02:51:52.251Z,995.95
2022-10-05T02:52:52.232Z,995.50
2022-10-05T02:53:52.212Z,995.57
2022-10-05T02:54:52.221Z,995.49
2022-10-05T02:55:52.192Z,995.57
2022-10-05T02:56:52.222Z,995.66
2022-10-05T02:57:52.183Z,994.80
2022-10-05T02:58:52.162Z,994.50
2022-10-05T02:59:52.141Z,994.09
2022-10-05T03:00:52.161Z,994.23
2022-10-05T03:01:52.200Z,993.96
2022-10-05T03:02:52.112Z,993.85
2022-10-05T03:03:52.091Z,993.89
2022-10-05T03:04:52.103Z,993.63
2022-10-05T03:05:52.083Z,993.97
2022-10-05T03:06:52.071Z,993.80
2022-10-05T03:07:52.065Z,993.90
2022-10-05T03:08:52.054Z,993.93
2022-10-05T03:09:52.023Z,993.78
2022-10-05T03:10:52.015Z,994.35
2022-10-05T03:11:52.023Z,994.07
2022-10-05T03:12:51.985Z,994.33
2022-10-05T03:13:51.988Z,994.56
2022-10-05T03:14:51.983Z,994.52
2022-10-05T03:15:52.050Z,994.76
2022-10-05T03:16:51.962Z,994.75
2022-10-05T03:17:51.944Z,995.21
2022-10-05T03:18:51.934Z,995.69
2022-10-05T03:19:51.915Z,995.40
2022-10-05T03:20:51.897Z,995.74
2022-10-05T03:21:51.905Z,995.68
2022-10-05T03:22:51.868Z,995.68
2022-10-05T03:23:51.873Z,995.53
2022-10-05T03:24:51.855Z,995.74
2022-10-05T03:25:51.845Z,995.81
2022-10-05T03:26:51.826Z,996.20
2022-10-05T03:27:51.832Z,996.42
2022-10-05T03:28:51.811Z,997.07
2022-10-05T03:29:51.803Z,997.73
2022-10-05T03:30:51.815Z,997.47
2022-10-05T03:31:51.796Z,997.75
2022-10-05T03:32:51.758Z,997.85
2022-10-05T03:33:51.736Z,998.18
2022-10-05T03:34:51.746Z,998.75
2022-10-05T03:35:51.734Z,999.23
2022-10-05T03:36:51.727Z,999.82
2022-10-05T03:37:51.698Z,999.65
2022-10-05T03:38:51.701Z,999.86
2022-10-05T03:39:51.668Z,1000.05
2022-10-05T03:40:51.667Z,999.94
2022-10-05T03:41:51.677Z,999.84
2022-10-05T03:42:51.646Z,1000.13
2022-10-05T03:43:51.627Z,1000.33
2022-10-05T03:44:51.627Z,999.89
2022-10-05T03:45:51.645Z,999.93
2022-10-05T03:46:51.610Z,1000.12
2022-10-05T03:47:51.589Z,1000.18
2022-10-05T03:48:51.576Z,1000.45
2022-10-05T03:49:51.558Z,1000.69
2022-10-05T03:50:51.548Z,1000.79
2022-10-05T03:51:51.559Z,1001.15
2022-10-05T03:52:51.528Z,1001.18
2022-10-05T03:53:51.512Z,1001.31
2022-10-05T03:54:51.508Z,1001.11
2022-10-05T03:55:51.489Z,1000.57
2022-10-05T03:56:51.488Z,1000.21
2022-10-05T03:57:51.738Z,999.81
2022-10-05T03:58:51.468Z,999.57
2022-10-05T03:59:51.699Z,999.32
2022-10-05T04:00:51.439Z,999.09
2022-10-05T04:01:51.528Z,998.86
2022-10-05T04:02:51.473Z,998.77
2022-10-05T04:03:51.398Z,998.66
2022-10-05T04:04:51.399Z,998.87
2022-10-05T04:05:51.390Z,998.70
2022-10-05T04:06:51.361Z,998.90
2022-10-05T04:07:51.352Z,998.60
2022-10-05T04:08:51.338Z,998.28
2022-10-05T04:09:51.330Z,998.07
2022-10-05T04:10:51.362Z,997.91
2022-10-05T04:11:51.334Z,997.15
2022-10-05T04:12:51.291Z,996.88
2022-10-05T04:13:51.288Z,996.56
2022-10-05T04:14:51.279Z,996.43
2022-10-05T04:15:51.287Z,996.36
2022-10-05T04:16:51.269Z,996.13
2022-10-05T04:17:51.258Z,996.03
2022-10-05T04:18:51.241Z,995.91
2022-10-05T04:19:51.229Z,996.16
2022-10-05T04:20:51.212Z,995.88
2022-10-05T04:21:51.221Z,995.71
2022-10-05T04:22:51.192Z,995.65
2022-10-05T04:23:51.174Z,995.66
2022-10-05T04:24:51.171Z,996.21
2022-10-05T04:25:51.165Z,996.66
2022-10-05T04:26:51.153Z,996.80
2022-10-05T04:27:51.162Z,997.20
2022-10-05T04:28:51.120Z,997.14
2022-10-05T04:29:51.105Z,997.43
2022-10-05T04:30:51.092Z,997.31
2022-10-05T04:31:51.200Z,997.17
2022-10-05T04:32:51.073Z,997.40
2022-10-05T04:33:51.063Z,997.51
2022-10-05T04:34:51.062Z,997.90
2022-10-05T04:35:51.057Z,997.73
2022-10-05T04:36:51.028Z,997.95
2022-10-05T04:37:51.035Z,998.28
2022-10-05T04:38:51.022Z,998.07
2022-10-05T04:39:50.987Z,998.09
2022-10-05T04:40:50.983Z,997.66
2022-10-05T04:41:50.993Z,997.67
2022-10-05T04:42:50.972Z,997.34
2022-10-05T04:43:50.944Z,997.61
2022-10-05T04:44:50.973Z,997.70
2022-10-05T04:45:50.925Z,997.34
2022-10-05T04:46:51.257Z,996.46
2022-10-05T04:47:50.904Z,996.51
2022-10-05T04:48:50.903Z,996.29
2022-10-05T04:49:50.887Z,996.21
2022-10-05T04:50:50.870Z,996.03
2022-10-05T04:51:51.397Z,996.26
2022-10-05T04:52:50.853Z,996.38
2022-10-05T04:53:50.824Z,996.71
2022-10-05T04:54:50.851Z,996.67
2022-10-05T04:55:50.837Z,996.62
2022-10-05T04:56:50.804Z,996.57
2022-10-05T04:57:50.799Z,996.50
2022-10-05T04:58:50.793Z,996.99
2022-10-05T04:59:50.766Z,996.80
2022-10-05T05:00:50.805Z,997.19
2022-10-05T05:01:50.746Z,997.00
2022-10-05T05:02:50.735Z,996.93
2022-10-05T05:03:50.761Z,997.48
2022-10-05T05:04:51.971Z,997.15
2022-10-05T05:06:15.364Z,997.92
2022-10-05T05:06:51.740Z,997.95
2022-10-05T05:07:51.667Z,998.02
2022-10-05T05:08:50.657Z,997.87
2022-10-05T05:09:50.640Z,996.94
2022-10-05T05:10:50.661Z,996.73
2022-10-05T05:11:50.626Z,996.45
2022-10-05T05:12:50.617Z,996.36
2022-10-05T05:13:50.597Z,996.09
2022-10-05T05:14:50.596Z,996.10
2022-10-05T05:15:50.628Z,995.94
2022-10-05T05:16:50.587Z,995.19
2022-10-05T05:17:50.547Z,994.70
2022-10-05T05:18:50.565Z,994.52
2022-10-05T05:19:50.644Z,994.77
2022-10-05T05:20:50.507Z,995.13
2022-10-05T05:21:50.541Z,995.41
2022-10-05T05:22:50.507Z,995.69
2022-10-05T05:23:50.490Z,995.53
2022-10-05T05:24:50.468Z,995.09
2022-10-05T05:25:50.483Z,995.42
2022-10-05T05:26:50.754Z,995.96
2022-10-05T05:27:50.440Z,996.14
2022-10-05T05:28:50.452Z,996.56
2022-10-05T05:29:50.420Z,996.80
2022-10-05T05:30:50.400Z,997.33
2022-10-05T05:31:50.442Z,997.77
2022-10-05T05:32:50.382Z,997.69
2022-10-05T05:33:50.380Z,997.08
2022-10-05T05:34:50.361Z,997.57
2022-10-05T05:35:50.458Z,998.19
2022-10-05T05:36:50.372Z,998.62
2022-10-05T05:37:50.311Z,998.87
2022-10-05T05:38:50.320Z,999.43
2022-10-05T05:39:50.289Z,1000.05
2022-10-05T05:40:50.313Z,1000.80
2022-10-05T05:41:50.300Z,1001.35
2022-10-05T05:42:50.270Z,1001.82
2022-10-05T05:43:50.252Z,1002.43
2022-10-05T05:44:50.250Z,1002.88
2022-10-05T05:45:50.257Z,1003.52
2022-10-05T05:47:03.585Z,1003.80
2022-10-05T05:47:51.272Z,1004.12
2022-10-05T05:48:50.207Z,1004.15
2022-10-05T05:49:50.188Z,1004.25
2022-10-05T05:50:50.183Z,1004.20
2022-10-05T05:51:50.176Z,1004.31
2022-10-05T05:52:50.162Z,1004.49
2022-10-05T05:53:50.132Z,1004.53
2022-10-05T05:54:50.134Z,1004.58
2022-10-05T05:55:50.117Z,1004.91
2022-10-05T05:56:50.119Z,1005.43
2022-10-05T05:57:50.087Z,1005.75
2022-10-05T05:58:50.086Z,1006.73
2022-10-05T05:59:50.062Z,1007.34
2022-10-05T06:00:50.082Z,1007.37
2022-10-05T06:01:50.190Z,1006.97
2022-10-05T06:02:50.139Z,1007.03
2022-10-05T06:03:50.013Z,1007.28
2022-10-05T06:04:50.021Z,1007.83
2022-10-05T06:05:50.003Z,1007.89
2022-10-05T06:06:50.249Z,1008.19
2022-10-05T06:07:49.984Z,1009.53
2022-10-05T06:08:49.966Z,1010.49
2022-10-05T06:09:49.944Z,1011.22
2022-10-05T06:10:49.957Z,1012.83
2022-10-05T06:11:49.944Z,1014.27
2022-10-05T06:12:49.927Z,1014.98
2022-10-05T06:13:49.909Z,1015.86
2022-10-05T06:14:49.893Z,1015.54
2022-10-05T06:15:49.886Z,1015.12
2022-10-05T06:16:50.491Z,1013.77
2022-10-05T06:17:49.865Z,1012.57
2022-10-05T06:18:49.844Z,1011.07
2022-10-05T06:19:49.837Z,1010.84
2022-10-05T06:20:49.812Z,1010.80
2022-10-05T06:21:49.861Z,1011.55
2022-10-05T06:22:49.786Z,1011.03
2022-10-05T06:23:49.777Z,1007.35
2022-10-05T06:24:49.767Z,1005.39
2022-10-05T06:25:49.775Z,1006.50
2022-10-05T06:26:49.928Z,1005.80
2022-10-05T06:27:49.754Z,1005.94
2022-10-05T06:28:49.734Z,1006.33
2022-10-05T06:29:49.724Z,1006.37
2022-10-05T06:30:49.709Z,1006.47
2022-10-05T06:31:49.827Z,1006.40
2022-10-05T06:32:49.677Z,1006.56
2022-10-05T06:33:49.676Z,1006.13
2022-10-05T06:34:49.665Z,1005.65
2022-10-05T06:35:49.647Z,1005.08
2022-10-05T06:36:49.887Z,1004.68
2022-10-05T06:37:49.616Z,1004.69
2022-10-05T06:38:49.618Z,1005.95
2022-10-05T06:39:49.600Z,1006.44
2022-10-05T06:40:49.613Z,1006.38
2022-10-05T06:41:49.597Z,1006.70
2022-10-05T06:42:49.577Z,1006.70
2022-10-05T06:43:49.549Z,1006.39
2022-10-05T06:44:49.550Z,1005.95
2022-10-05T06:45:49.567Z,1005.87
2022-10-05T06:46:49.805Z,1006.41
2022-10-05T06:47:49.517Z,1007.63
2022-10-05T06:48:49.489Z,1007.90
2022-10-05T06:49:49.477Z,1006.37
2022-10-05T06:50:49.498Z,1005.55
2022-10-05T06:51:49.486Z,1006.30
2022-10-05T06:52:49.448Z,1007.55
2022-10-05T06:53:49.440Z,1008.38
2022-10-05T06:54:49.424Z,1009.38
2022-10-05T06:55:49.420Z,1008.91
2022-10-05T06:56:49.908Z,1007.61
2022-10-05T06:57:49.399Z,1005.65
2022-10-05T06:58:49.381Z,1008.93
2022-10-05T06:59:49.389Z,1008.22
2022-10-05T07:00:49.429Z,1006.80
2022-10-05T07:01:49.828Z,1009.78
2022-10-05T07:02:49.360Z,1016.84
2022-10-05T07:03:49.339Z,1016.37
2022-10-05T07:04:49.325Z,1007.93
2022-10-05T07:05:49.289Z,1003.80
2022-10-05T07:06:49.311Z,1004.37
2022-10-05T07:07:49.270Z,1006.86
2022-10-05T07:08:49.278Z,1006.41
2022-10-05T07:09:49.271Z,1005.26
2022-10-05T07:10:49.261Z,1003.36
2022-10-05T07:11:55.291Z,1001.92
2022-10-05T07:12:50.229Z,1002.75
2022-10-05T07:13:49.220Z,1004.17
2022-10-05T07:14:49.236Z,1004.71
2022-10-05T07:15:49.191Z,1003.40
2022-10-05T07:16:49.250Z,1003.39
2022-10-05T07:17:49.166Z,1003.00
2022-10-05T07:18:49.161Z,1003.68
2022-10-05T07:19:49.168Z,1004.14
2022-10-05T07:20:49.493Z,1005.77
2022-10-05T07:21:49.562Z,1006.48
2022-10-05T07:22:49.138Z,1007.00
2022-10-05T07:23:49.122Z,1007.34
2022-10-05T07:24:49.114Z,1008.09
2022-10-05T07:25:49.090Z,1007.16
2022-10-05T07:26:49.430Z,1007.93
2022-10-05T07:27:51.081Z,1007.90
2022-10-05T07:28:49.044Z,1006.82
2022-10-05T07:29:49.044Z,1005.04
2022-10-05T07:30:49.059Z,1003.12
2022-10-05T07:31:49.016Z,1002.62
2022-10-05T07:32:49.004Z,1004.98
2022-10-05T07:33:49.234Z,1005.57
2022-10-05T07:34:48.976Z,1007.17
2022-10-05T07:35:48.979Z,1008.62
2022-10-05T07:36:54.421Z,1009.15
2022-10-05T07:37:49.954Z,1008.19
2022-10-05T07:38:48.924Z,1008.35
2022-10-05T07:40:00.160Z,1010.05
2022-10-05T07:40:49.927Z,1011.32
2022-10-05T07:41:48.919Z,1013.24
2022-10-05T07:42:52.165Z,1014.11
2022-10-05T07:44:01.933Z,1013.10
2022-10-05T07:44:49.865Z,1013.52
2022-10-05T07:45:48.888Z,1014.01
2022-10-05T07:46:49.238Z,1015.10
2022-10-05T07:47:48.816Z,1014.83
2022-10-05T07:48:48.808Z,1014.61
2022-10-05T07:49:48.832Z,1015.16
2022-10-05T07:50:48.791Z,1014.87
2022-10-05T07:51:48.792Z,1013.88
2022-10-05T07:52:48.775Z,1014.26
2022-10-05T07:53:48.759Z,1013.94
2022-10-05T07:54:48.738Z,1013.99
2022-10-05T07:55:48.738Z,1014.09
2022-10-05T07:56:49.283Z,1012.37
2022-10-05T07:57:48.725Z,1011.15
2022-10-05T07:58:48.768Z,1011.18
2022-10-05T07:59:48.691Z,1012.39
2022-10-05T08:00:48.725Z,1011.64
2022-10-05T08:01:48.755Z,1012.85
2022-10-05T08:02:48.691Z,1011.75
2022-10-05T08:03:48.661Z,1010.29
2022-10-05T08:04:48.627Z,1011.43
2022-10-05T08:05:48.628Z,1011.88
2022-10-05T08:06:49.168Z,1009.71
2022-10-05T08:07:48.580Z,1010.52
2022-10-05T08:08:48.991Z,1011.79
2022-10-05T08:09:48.580Z,1009.80
2022-10-05T08:10:48.580Z,1010.11
2022-10-05T08:11:49.191Z,1011.46
2022-10-05T08:12:48.540Z,1008.84
2022-10-05T08:13:48.519Z,1006.52
2022-10-05T08:14:48.526Z,1003.33
2022-10-05T08:15:48.556Z,1001.25
2022-10-05T08:16:48.512Z,999.63
2022-10-05T08:17:48.460Z,997.87
2022-10-05T08:18:48.483Z,995.08
2022-10-05T08:19:48.464Z,990.88
2022-10-05T08:20:48.474Z,992.88
2022-10-05T08:21:49.048Z,992.01
2022-10-05T08:22:48.412Z,988.54
2022-10-05T08:23:48.391Z,989.77
2022-10-05T08:24:48.413Z,989.18
2022-10-05T08:25:48.410Z,987.73
2022-10-05T08:26:48.392Z,986.69
2022-10-05T08:27:48.359Z,991.61
2022-10-05T08:28:48.352Z,990.80
2022-10-05T08:29:48.327Z,991.06
2022-10-05T08:30:48.369Z,993.45
2022-10-05T08:31:48.634Z,999.56
2022-10-05T08:32:48.306Z,1002.45
2022-10-05T08:33:48.274Z,998.74
2022-10-05T08:34:48.301Z,1000.03
2022-10-05T08:35:48.261Z,998.66
2022-10-05T08:36:52.924Z,997.63
2022-10-05T08:37:49.245Z,1000.94
2022-10-05T08:38:48.219Z,1001.76
2022-10-05T08:39:48.214Z,1003.47
2022-10-05T08:40:48.214Z,997.34
2022-10-05T08:41:48.538Z,1001.90
2022-10-05T08:42:48.203Z,1006.38
2022-10-05T08:43:48.184Z,1010.05
2022-10-05T08:44:48.204Z,1007.20
2022-10-05T08:45:48.276Z,1008.70
2022-10-05T08:46:48.148Z,1013.14
2022-10-05T08:47:48.145Z,1006.74
2022-10-05T08:48:48.115Z,1008.84
2022-10-05T08:49:48.096Z,1011.60
2022-10-05T08:50:48.113Z,1024.72
2022-10-05T08:51:48.519Z,1011.39
2022-10-05T08:52:48.071Z,1008.60
2022-10-05T08:53:48.070Z,1005.87
2022-10-05T08:54:48.040Z,1002.34
2022-10-05T08:55:48.032Z,1003.91
2022-10-05T08:56:48.016Z,1003.61
2022-10-05T08:57:48.035Z,1003.52
2022-10-05T08:58:47.988Z,999.67
2022-10-05T08:59:47.985Z,998.95
2022-10-05T09:00:48.023Z,998.40
2022-10-05T09:01:48.293Z,1001.33
2022-10-05T09:02:48.009Z,998.69
2022-10-05T09:03:47.951Z,998.17
2022-10-05T09:04:47.929Z,997.23
2022-10-05T09:05:47.908Z,994.01
2022-10-05T09:06:47.919Z,993.44
2022-10-05T09:07:47.922Z,995.13
2022-10-05T09:08:47.890Z,1007.12
2022-10-05T09:09:47.872Z,999.18
2022-10-05T09:10:47.861Z,1003.80
2022-10-05T09:11:48.125Z,1025.87
2022-10-05T09:12:47.851Z,1007.57
2022-10-05T09:13:47.831Z,1005.47
2022-10-05T09:14:56.622Z,1002.93
2022-10-05T09:15:48.849Z,999.56
2022-10-05T09:16:47.811Z,995.09
2022-10-05T09:17:47.796Z,1026.27
2022-10-05T09:18:47.911Z,1020.34
2022-10-05T09:19:47.777Z,987.60
2022-10-05T09:20:47.752Z,1010.97
2022-10-05T09:21:47.970Z,989.62
2022-10-05T09:22:47.772Z,1014.50
2022-10-05T09:23:47.725Z,1025.55
2022-10-05T09:24:48.586Z,989.67
2022-10-05T09:25:47.694Z,999.72
2022-10-05T09:26:47.701Z,1021.17
2022-10-05T09:27:47.673Z,1014.64
2022-10-05T09:28:47.656Z,1008.48
2022-10-05T09:29:47.653Z,1002.03
2022-10-05T09:30:47.684Z,998.08
2022-10-05T09:31:47.974Z,994.28
2022-10-05T09:32:47.627Z,982.19
2022-10-05T09:33:47.600Z,993.18
2022-10-05T09:34:47.595Z,985.09
2022-10-05T09:35:47.595Z,981.45
2022-10-05T09:36:47.602Z,987.10
2022-10-05T09:37:47.555Z,991.17
2022-10-05T09:38:47.555Z,996.05
2022-10-05T09:39:47.538Z,998.77
2022-10-05T09:40:47.518Z,990.30
2022-10-05T09:41:47.762Z,982.40
2022-10-05T09:42:47.517Z,968.86
2022-10-05T09:43:47.490Z,956.71
2022-10-05T09:44:47.495Z,949.94
2022-10-05T09:45:47.475Z,954.55
2022-10-05T09:46:47.487Z,962.94
2022-10-05T09:47:47.450Z,971.35
2022-10-05T09:48:47.438Z,978.79
2022-10-05T09:49:47.418Z,979.50
2022-10-05T09:50:47.407Z,974.55
2022-10-05T09:51:48.801Z,965.48
2022-10-05T09:52:47.446Z,959.46
2022-10-05T09:53:47.370Z,960.39
2022-10-05T09:54:47.349Z,961.53
2022-10-05T09:55:47.339Z,958.46
2022-10-05T09:56:47.611Z,951.50
2022-10-05T09:57:49.366Z,943.99
2022-10-05T09:58:48.310Z,938.80
2022-10-05T09:59:47.299Z,935.32
2022-10-05T10:00:54.234Z,943.41
2022-10-05T10:01:48.634Z,960.59
2022-10-05T10:02:47.326Z,969.40
2022-10-05T10:03:47.262Z,967.25
2022-10-05T10:04:47.241Z,968.02
2022-10-05T10:05:47.227Z,962.04
2022-10-05T10:06:47.241Z,957.48
2022-10-05T10:07:47.200Z,958.42
2022-10-05T10:08:47.200Z,951.30
2022-10-05T10:09:47.193Z,943.08
2022-10-05T10:10:47.173Z,945.90
2022-10-05T10:11:47.414Z,948.53
2022-10-05T10:12:47.144Z,948.25
2022-10-05T10:13:47.125Z,943.20
2022-10-05T10:14:47.113Z,939.10
2022-10-05T10:15:47.136Z,945.03
2022-10-05T10:16:47.122Z,942.50
2022-10-05T10:17:47.074Z,928.81
2022-10-05T10:18:47.076Z,906.99
2022-10-05T10:19:47.056Z,878.25
2022-10-05T10:20:47.089Z,859.51
2022-10-05T10:21:47.224Z,848.12
2022-10-05T10:22:47.015Z,852.22
2022-10-05T10:23:47.015Z,853.50
2022-10-05T10:24:47.005Z,866.22
2022-10-05T10:25:47.046Z,862.29
2022-10-05T10:26:47.065Z,863.32
2022-10-05T10:27:51.638Z,866.72
2022-10-05T10:28:47.955Z,867.43
2022-10-05T10:29:46.966Z,867.28
2022-10-05T10:30:46.980Z,867.27
2022-10-05T10:31:47.220Z,860.73
2022-10-05T10:32:46.916Z,851.26
2022-10-05T10:33:46.891Z,851.92
2022-10-05T10:34:46.877Z,806.20
2022-10-05T10:35:46.857Z,819.90
2022-10-05T10:36:47.116Z,829.76
2022-10-05T10:37:46.852Z,822.63
2022-10-05T10:38:46.821Z,813.57
2022-10-05T10:39:46.829Z,816.96
2022-10-05T10:40:46.818Z,772.34
2022-10-05T10:41:46.808Z,771.77
2022-10-05T10:42:46.803Z,822.52
2022-10-05T10:43:46.771Z,809.41
2022-10-05T10:44:46.771Z,805.92
2022-10-05T10:45:46.764Z,802.46
2022-10-05T10:46:47.267Z,800.36
2022-10-05T10:47:46.740Z,795.32
2022-10-05T10:48:46.710Z,796.61
2022-10-05T10:49:46.701Z,795.83
2022-10-05T10:50:46.684Z,783.92
2022-10-05T10:51:46.813Z,788.78
2022-10-05T10:52:46.672Z,786.07
2022-10-05T10:53:46.643Z,782.09
2022-10-05T10:54:46.652Z,776.10
2022-10-05T10:55:46.624Z,776.78
2022-10-05T10:56:46.937Z,779.05
2022-10-05T10:57:46.612Z,769.72
2022-10-05T10:58:46.614Z,772.59
2022-10-05T10:59:46.573Z,779.92
2022-10-05T11:00:46.575Z,782.55
2022-10-05T11:01:46.910Z,786.64
2022-10-05T11:02:46.660Z,780.93
2022-10-05T11:03:46.542Z,780.48
2022-10-05T11:04:46.514Z,775.57
2022-10-05T11:05:48.744Z,778.31
2022-10-05T11:06:46.514Z,779.09
2022-10-05T11:07:46.486Z,775.89
2022-10-05T11:08:46.471Z,777.70
2022-10-05T11:09:46.473Z,777.41
2022-10-05T11:10:46.452Z,767.67
2022-10-05T11:11:46.910Z,772.20
2022-10-05T11:12:46.437Z,771.28
2022-10-05T11:13:46.430Z,770.14
2022-10-05T11:14:46.389Z,768.76
2022-10-05T11:15:46.523Z,772.19
2022-10-05T11:16:46.716Z,768.00
2022-10-05T11:17:46.428Z,768.54
2022-10-05T11:18:46.362Z,768.03
2022-10-05T11:20:02.911Z,766.03
2022-10-05T11:20:47.358Z,762.86
2022-10-05T11:21:46.387Z,768.53
2022-10-05T11:22:46.338Z,766.82
2022-10-05T11:23:46.296Z,768.68
2022-10-05T11:24:46.320Z,770.19
2022-10-05T11:25:46.281Z,768.07
2022-10-05T11:26:46.651Z,765.64
2022-10-05T11:27:46.260Z,765.47
2022-10-05T11:28:46.230Z,769.14
2022-10-05T11:29:46.223Z,771.28
2022-10-05T11:30:48.902Z,770.85
2022-10-05T11:31:47.587Z,769.28
2022-10-05T11:32:46.181Z,770.02
2022-10-05T11:33:46.170Z,772.37
2022-10-05T11:34:46.158Z,771.33
2022-10-05T11:35:46.152Z,772.03
2022-10-05T11:36:46.151Z,773.56
2022-10-05T11:37:46.164Z,770.31
2022-10-05T11:38:46.129Z,769.97
2022-10-05T11:39:46.144Z,771.05
2022-10-05T11:40:46.085Z,771.93
2022-10-05T11:41:46.353Z,763.90
2022-10-05T11:42:46.100Z,763.82
2022-10-05T11:43:46.071Z,765.39
2022-10-05T11:44:46.055Z,760.52
2022-10-05T11:45:46.068Z,761.52
2022-10-05T11:46:46.104Z,765.96
2022-10-05T11:47:46.251Z,767.25
2022-10-05T11:48:46.039Z,764.68
2022-10-05T11:49:46.006Z,763.06
2022-10-05T11:50:45.994Z,765.35
2022-10-05T11:51:46.323Z,764.19
2022-10-05T11:52:45.974Z,762.24
2022-10-05T11:53:45.934Z,757.88
2022-10-05T11:55:09.814Z,756.81
2022-10-05T11:55:46.915Z,759.77
2022-10-05T11:56:48.456Z,760.66
2022-10-05T11:57:46.952Z,755.41
2022-10-05T11:58:45.878Z,760.24
2022-10-05T11:59:45.869Z,763.59
2022-10-05T12:00:45.899Z,763.54
2022-10-05T12:01:45.837Z,763.88
2022-10-05T12:02:46.002Z,762.85
2022-10-05T12:03:45.980Z,766.00
2022-10-05T12:04:45.807Z,761.57
2022-10-05T12:05:45.807Z,760.87
2022-10-05T12:06:46.228Z,763.39
2022-10-05T12:07:45.818Z,763.02
2022-10-05T12:08:45.767Z,763.30
2022-10-05T12:09:45.778Z,765.41
2022-10-05T12:10:45.748Z,766.05
2022-10-05T12:11:45.769Z,762.96
2022-10-05T12:12:45.773Z,759.62
2022-10-05T12:13:45.751Z,755.69
2022-10-05T12:14:45.707Z,752.94
2022-10-05T12:15:46.460Z,757.51
2022-10-05T12:16:45.821Z,754.20
2022-10-05T12:17:45.730Z,749.38
2022-10-05T12:18:45.770Z,751.40